Time;durP1;ratioP1;P1;durP2;ratioP2;P2;SDS_P1;SDS_P2;PMS_P1;PMS_P2;Temp;Humidity;BMP_temperature;BMP_pressure;BME280_temperature;BME280_humidity;BME280_pressure;Samples;Min_cycle;Max_cycle;Signal;HPM_P1;HPM_P2
2021/08/26 00:00:09;;;;;;;0.77;0.22;;;16.70;86.60;;;;;;5020158;28;20119;-82
2021/08/26 00:05:47;;;;;;;0.52;0.20;;;16.70;86.60;;;;;;5019112;28;20130;-83
2021/08/26 00:08:16;;;;;;;1.92;0.20;;;16.70;86.50;;;;;;5025330;28;20124;-82
2021/08/26 00:10:53;;;;;;;0.88;0.40;;;16.70;86.50;;;;;;4993221;28;20099;-82
2021/08/26 00:13:22;;;;;;;0.93;0.30;;;16.70;86.60;;;;;;5025248;28;20037;-82
2021/08/26 00:15:50;;;;;;;0.82;0.20;;;16.70;86.60;;;;;;5038153;28;20045;-82
2021/08/26 00:18:27;;;;;;;0.55;0.10;;;16.70;86.60;;;;;;5039194;28;20040;-82
2021/08/26 00:20:54;;;;;;;0.82;0.20;;;16.70;86.60;;;;;;5024243;28;20065;-82
2021/08/26 00:23:23;;;;;;;0.95;0.30;;;16.70;86.60;;;;;;5045184;28;20219;-82
2021/08/26 00:25:53;;;;;;;1.10;0.28;;;16.70;86.50;;;;;;5032786;28;20044;-82
2021/08/26 00:28:28;;;;;;;1.17;0.20;;;16.80;86.60;;;;;;5005106;28;20068;-83
2021/08/26 00:30:59;;;;;;;1.00;0.22;;;16.80;86.60;;;;;;5022760;28;20544;-82
2021/08/26 00:33:30;;;;;;;4.28;0.50;;;16.80;86.60;;;;;;5023744;28;20048;-82
2021/08/26 00:35:57;;;;;;;1.25;0.52;;;16.80;86.80;;;;;;5019401;28;20041;-82
2021/08/26 00:38:25;;;;;;;1.27;0.40;;;16.70;86.90;;;;;;5024863;28;20139;-82
2021/08/26 00:40:54;;;;;;;2.08;0.40;;;16.70;86.90;;;;;;5020212;28;20059;-82
2021/08/26 00:43:24;;;;;;;1.05;0.40;;;16.70;86.90;;;;;;5025045;28;20053;-82
2021/08/26 00:45:55;;;;;;;1.58;0.38;;;16.70;86.90;;;;;;5025467;28;20036;-83
2021/08/26 00:48:23;;;;;;;0.63;0.20;;;16.80;86.90;;;;;;5037293;28;20041;-82
2021/08/26 00:50:53;;;;;;;0.47;0.15;;;16.80;86.80;;;;;;5020732;28;20045;-83
2021/08/26 00:53:29;;;;;;;1.73;0.40;;;16.80;87.40;;;;;;5025682;28;20488;-82
2021/08/26 00:55:56;;;;;;;2.53;0.30;;;16.80;86.70;;;;;;5034336;28;20587;-82
2021/08/26 00:58:24;;;;;;;2.33;0.35;;;16.80;86.70;;;;;;5045459;28;20041;-82
2021/08/26 01:01:05;;;;;;;0.75;0.22;;;16.80;86.70;;;;;;5023868;28;20481;-82
2021/08/26 01:04:00;;;;;;;2.53;0.40;;;16.90;86.70;;;;;;5005379;28;20129;-82
2021/08/26 01:06:40;;;;;;;1.23;0.20;;;16.80;86.60;;;;;;5036851;28;20481;-82
2021/08/26 01:09:13;;;;;;;2.13;0.20;;;16.90;86.70;;;;;;5021162;28;20125;-82
2021/08/26 01:11:46;;;;;;;0.77;0.20;;;16.80;86.60;;;;;;5036932;28;20041;-82
2021/08/26 01:14:24;;;;;;;1.02;0.20;;;16.80;86.60;;;;;;5017699;28;20041;-82
2021/08/26 01:16:58;;;;;;;1.10;0.30;;;16.90;86.70;;;;;;5024801;28;20131;-81
2021/08/26 01:19:29;;;;;;;0.80;0.20;;;16.90;86.60;;;;;;5027022;28;20152;-81
2021/08/26 01:21:56;;;;;;;1.83;0.20;;;16.90;86.60;;;;;;5011864;28;20063;-81
2021/08/26 01:24:28;;;;;;;3.40;0.28;;;16.90;86.60;;;;;;5043997;28;20043;-81
2021/08/26 01:26:59;;;;;;;1.73;0.52;;;16.90;86.60;;;;;;5043583;28;20032;-81
2021/08/26 01:29:29;;;;;;;0.70;0.28;;;16.90;86.60;;;;;;5049979;28;20044;-81
2021/08/26 01:31:57;;;;;;;1.38;0.30;;;16.90;86.60;;;;;;5041377;28;20048;-81
2021/08/26 01:34:28;;;;;;;0.73;0.20;;;16.90;86.50;;;;;;5005046;28;20122;-82
2021/08/26 01:36:58;;;;;;;0.90;0.60;;;16.90;86.50;;;;;;5019198;28;20048;-82
2021/08/26 01:39:26;;;;;;;0.50;0.20;;;16.90;86.50;;;;;;5022803;28;20079;-82
2021/08/26 01:41:55;;;;;;;1.10;0.30;;;16.90;86.40;;;;;;5016431;28;20037;-81
2021/08/26 01:44:23;;;;;;;1.27;0.30;;;16.90;86.40;;;;;;5025368;28;20037;-81
2021/08/26 01:46:56;;;;;;;3.45;0.40;;;16.90;86.30;;;;;;5044383;28;20087;-81
2021/08/26 01:49:24;;;;;;;4.38;0.50;;;16.80;86.20;;;;;;5027854;28;20041;-82
2021/08/26 01:51:51;;;;;;;2.10;0.40;;;16.80;86.30;;;;;;5038657;28;20049;-81
2021/08/26 01:54:19;;;;;;;3.85;0.60;;;16.80;86.20;;;;;;5017282;28;20037;-81
2021/08/26 01:56:47;;;;;;;2.63;0.50;;;16.70;86.10;;;;;;5015132;28;20068;-82
2021/08/26 01:59:15;;;;;;;1.70;0.40;;;16.70;86.10;;;;;;5040832;28;20126;-81
2021/08/26 02:01:43;;;;;;;3.85;0.70;;;16.70;86.00;;;;;;5023703;28;20124;-82
2021/08/26 02:04:10;;;;;;;3.05;0.40;;;16.70;86.00;;;;;;5008973;28;20486;-81
2021/08/26 02:06:38;;;;;;;3.08;0.60;;;16.70;85.90;;;;;;5044728;28;20144;-81
2021/08/26 02:09:05;;;;;;;2.53;0.38;;;16.70;85.90;;;;;;5019619;28;20128;-81
2021/08/26 02:11:32;;;;;;;2.42;0.50;;;16.70;85.80;;;;;;5025182;28;20106;-81
2021/08/26 02:13:59;;;;;;;1.65;0.32;;;16.70;85.70;;;;;;5024703;28;20075;-81
2021/08/26 02:16:27;;;;;;;4.18;0.93;;;16.70;86.20;;;;;;5004561;28;20049;-82
2021/08/26 02:18:54;;;;;;;2.78;0.40;;;16.70;85.50;;;;;;5023399;28;20041;-82
2021/08/26 02:21:21;;;;;;;2.30;0.40;;;16.70;85.40;;;;;;5026446;28;20064;-82
2021/08/26 02:23:53;;;;;;;1.95;0.30;;;16.70;85.40;;;;;;5027558;28;20049;-82
2021/08/26 02:26:20;;;;;;;2.05;0.45;;;16.70;85.30;;;;;;5041948;28;20044;-82
2021/08/26 02:28:50;;;;;;;1.35;0.30;;;16.70;85.20;;;;;;5033728;28;20485;-81
2021/08/26 02:31:18;;;;;;;2.15;0.52;;;16.70;85.20;;;;;;5037680;28;20040;-81
2021/08/26 02:33:47;;;;;;;5.47;0.70;;;16.70;85.10;;;;;;5036994;28;20099;-81
2021/08/26 02:36:14;;;;;;;4.03;0.60;;;16.70;85.70;;;;;;5031591;28;20042;-81
2021/08/26 02:38:41;;;;;;;3.60;0.60;;;16.70;85.00;;;;;;5021415;28;21083;-82
2021/08/26 02:41:09;;;;;;;2.72;0.40;;;16.60;85.00;;;;;;5027235;28;20143;-82
2021/08/26 02:43:36;;;;;;;3.22;0.55;;;16.70;85.00;;;;;;5026973;28;20139;-82
2021/08/26 02:46:04;;;;;;;3.40;0.50;;;16.70;84.90;;;;;;5023168;28;20041;-82
2021/08/26 02:48:31;;;;;;;2.90;0.50;;;16.70;84.80;;;;;;5006241;28;20045;-82
2021/08/26 02:50:59;;;;;;;2.95;0.50;;;16.70;84.80;;;;;;5018140;28;20042;-81
2021/08/26 02:53:26;;;;;;;4.10;0.60;;;16.70;84.70;;;;;;5005366;28;20055;-81
2021/08/26 02:55:53;;;;;;;4.70;0.70;;;16.60;84.60;;;;;;5002494;28;20049;-81
2021/08/26 02:58:21;;;;;;;1.23;0.50;;;16.60;84.60;;;;;;5022718;28;20059;-81
2021/08/26 03:00:51;;;;;;;2.45;0.70;;;16.60;84.70;;;;;;5023557;28;20039;-81
2021/08/26 03:03:19;;;;;;;3.40;0.85;;;16.60;84.70;;;;;;5021910;28;20119;-80
2021/08/26 03:05:46;;;;;;;5.45;0.70;;;16.60;84.60;;;;;;5022447;28;20041;-81
2021/08/26 03:08:17;;;;;;;1.45;0.52;;;16.60;84.60;;;;;;5002934;28;20040;-80
2021/08/26 03:10:44;;;;;;;5.68;0.70;;;16.60;84.60;;;;;;5043508;28;20049;-81
2021/08/26 03:13:11;;;;;;;2.90;0.43;;;16.60;84.50;;;;;;5022561;28;20148;-80
2021/08/26 03:15:38;;;;;;;3.30;1.08;;;16.60;84.50;;;;;;5042641;28;20065;-81
2021/08/26 03:18:06;;;;;;;5.05;0.73;;;16.60;84.40;;;;;;4996183;28;20435;-81
2021/08/26 03:20:33;;;;;;;5.40;0.68;;;16.60;84.40;;;;;;5026188;28;20189;-81
2021/08/26 03:23:00;;;;;;;2.92;0.47;;;16.50;84.40;;;;;;5025077;28;20092;-81
2021/08/26 03:25:28;;;;;;;2.83;0.73;;;16.50;84.40;;;;;;5013124;28;20048;-80
2021/08/26 03:27:57;;;;;;;3.80;1.00;;;16.50;84.30;;;;;;4994604;28;20163;-80
2021/08/26 03:30:24;;;;;;;3.53;0.80;;;16.50;84.40;;;;;;5043283;28;20559;-81
2021/08/26 03:32:52;;;;;;;2.95;0.65;;;16.50;84.30;;;;;;5022956;28;20045;-80
2021/08/26 03:35:19;;;;;;;4.35;1.00;;;16.50;84.30;;;;;;5026953;28;20544;-80
2021/08/26 03:37:49;;;;;;;2.45;0.90;;;16.40;84.20;;;;;;5006036;28;20758;-81
2021/08/26 03:40:16;;;;;;;5.63;1.15;;;16.40;84.30;;;;;;5021132;28;20122;-81
2021/08/26 03:42:43;;;;;;;10.85;1.65;;;16.30;84.30;;;;;;5041727;28;20041;-81
2021/08/26 03:45:11;;;;;;;5.15;1.20;;;16.30;84.30;;;;;;5009290;28;20037;-79
2021/08/26 03:47:38;;;;;;;6.30;1.38;;;16.30;84.30;;;;;;5007441;28;20070;-78
2021/08/26 03:50:05;;;;;;;3.95;1.23;;;16.20;84.30;;;;;;5022510;28;20106;-78
2021/08/26 03:52:33;;;;;;;4.10;0.95;;;16.20;84.90;;;;;;5022101;28;20045;-79
2021/08/26 03:55:00;;;;;;;4.25;1.45;;;16.30;84.50;;;;;;5006076;28;20059;-79
2021/08/26 03:57:27;;;;;;;3.13;1.00;;;16.20;84.40;;;;;;5011000;28;20110;-81
2021/08/26 03:59:56;;;;;;;2.33;0.90;;;16.20;84.40;;;;;;5032399;28;20063;-80
2021/08/26 04:02:23;;;;;;;10.77;1.75;;;16.20;84.40;;;;;;5005713;28;20151;-80
2021/08/26 04:05:00;;;;;;;6.18;1.27;;;16.20;84.50;;;;;;5021578;28;20041;-81
2021/08/26 04:07:31;;;;;;;5.65;1.30;;;16.20;84.50;;;;;;5019675;28;20410;-81
2021/08/26 04:09:59;;;;;;;5.07;0.77;;;16.20;84.50;;;;;;5037603;28;20040;-81
2021/08/26 04:12:30;;;;;;;6.97;0.90;;;16.20;84.40;;;;;;5043609;28;20045;-80
2021/08/26 04:14:57;;;;;;;5.78;0.98;;;16.20;84.40;;;;;;5022812;28;20033;-80
2021/08/26 04:17:24;;;;;;;2.95;0.88;;;16.20;84.40;;;;;;5021285;28;20128;-80
2021/08/26 04:19:51;;;;;;;6.10;1.30;;;16.20;84.40;;;;;;5015458;28;20115;-80
2021/08/26 04:22:18;;;;;;;5.95;1.00;;;16.20;84.40;;;;;;5025755;28;20053;-80
2021/08/26 04:24:45;;;;;;;5.75;1.15;;;16.20;84.40;;;;;;5023596;28;20025;-80
2021/08/26 04:27:12;;;;;;;5.22;0.75;;;16.20;84.40;;;;;;4990318;28;20060;-80
2021/08/26 04:29:39;;;;;;;2.80;1.05;;;16.20;84.40;;;;;;5015586;28;20033;-80
2021/08/26 04:32:06;;;;;;;5.57;0.98;;;16.20;84.40;;;;;;5021047;28;20455;-80
2021/08/26 04:34:34;;;;;;;4.22;1.10;;;16.20;84.30;;;;;;5036353;28;20044;-80
2021/08/26 04:37:01;;;;;;;5.90;1.10;;;16.20;84.20;;;;;;5026484;28;20087;-80
2021/08/26 04:39:28;;;;;;;4.25;0.75;;;16.20;84.20;;;;;;5047208;28;20095;-80
2021/08/26 04:41:55;;;;;;;4.85;0.90;;;16.20;84.20;;;;;;5026102;28;20033;-81
2021/08/26 04:44:22;;;;;;;7.18;1.17;;;16.20;84.10;;;;;;5013450;28;20037;-81
2021/08/26 04:46:49;;;;;;;5.38;0.75;;;16.20;84.20;;;;;;5008247;28;20044;-80
2021/08/26 04:49:16;;;;;;;3.15;0.93;;;16.20;84.10;;;;;;5006570;28;20420;-81
2021/08/26 04:51:43;;;;;;;3.72;0.73;;;16.10;84.20;;;;;;5008445;28;20069;-80
2021/08/26 04:54:10;;;;;;;4.97;0.85;;;16.10;84.20;;;;;;5019831;28;20082;-81
2021/08/26 04:56:37;;;;;;;3.30;0.68;;;16.10;84.20;;;;;;5003206;28;20520;-81
2021/08/26 04:59:04;;;;;;;4.28;0.70;;;16.10;84.20;;;;;;4999324;28;20053;-80
2021/08/26 05:01:32;;;;;;;6.22;0.73;;;16.10;84.10;;;;;;5021508;28;20085;-81
2021/08/26 05:04:03;;;;;;;4.43;0.70;;;16.10;84.10;;;;;;4997673;28;20082;-81
2021/08/26 05:06:34;;;;;;;5.88;0.75;;;16.10;84.20;;;;;;5006307;28;20496;-80
2021/08/26 05:09:01;;;;;;;3.35;0.80;;;16.10;84.20;;;;;;5013103;28;20033;-81
2021/08/26 05:11:34;;;;;;;4.43;0.50;;;16.10;84.20;;;;;;5006377;28;20143;-80
2021/08/26 05:14:01;;;;;;;4.78;0.80;;;16.10;84.20;;;;;;5013951;28;20056;-80
2021/08/26 05:16:28;;;;;;;3.35;0.63;;;16.10;84.10;;;;;;5006731;28;20045;-80
2021/08/26 05:18:56;;;;;;;3.08;0.80;;;16.10;84.10;;;;;;5007625;28;20053;-80
2021/08/26 05:21:23;;;;;;;3.05;0.57;;;16.00;84.10;;;;;;5002643;28;20068;-81
2021/08/26 05:23:53;;;;;;;4.65;0.63;;;16.10;84.10;;;;;;5006727;28;20076;-81
2021/08/26 05:26:20;;;;;;;2.83;0.75;;;16.10;84.00;;;;;;5020345;28;20049;-81
2021/08/26 05:28:47;;;;;;;5.05;0.70;;;16.10;84.00;;;;;;5042527;28;20492;-80
2021/08/26 05:31:16;;;;;;;3.35;0.73;;;16.10;84.00;;;;;;5023547;28;20048;-80
2021/08/26 05:33:46;;;;;;;3.75;0.93;;;16.20;83.90;;;;;;4992855;28;20044;-80
2021/08/26 05:36:13;;;;;;;7.03;1.13;;;16.20;83.80;;;;;;5034885;28;20052;-81
2021/08/26 05:38:40;;;;;;;3.92;0.70;;;16.20;83.70;;;;;;5039927;28;20055;-81
2021/08/26 05:41:07;;;;;;;8.45;1.35;;;16.20;83.70;;;;;;5019421;28;20123;-81
2021/08/26 05:43:35;;;;;;;4.68;1.05;;;16.20;83.60;;;;;;5038104;28;20044;-80
2021/08/26 05:46:05;;;;;;;6.15;1.23;;;16.30;83.50;;;;;;5027348;28;20102;-80
2021/08/26 05:48:33;;;;;;;8.10;1.23;;;16.30;83.50;;;;;;5011020;28;20416;-80
2021/08/26 05:51:01;;;;;;;3.15;0.80;;;16.30;83.40;;;;;;5038503;28;20770;-81
2021/08/26 05:53:31;;;;;;;6.63;1.20;;;16.30;83.40;;;;;;5009655;28;20090;-81
2021/08/26 05:55:58;;;;;;;8.70;1.52;;;16.30;83.60;;;;;;5001568;28;20045;-80
2021/08/26 05:58:28;;;;;;;3.40;1.00;;;16.30;83.30;;;;;;5020476;28;20053;-80
2021/08/26 06:00:56;;;;;;;4.18;0.82;;;16.30;83.30;;;;;;5023341;28;20164;-81
2021/08/26 06:03:25;;;;;;;5.25;0.90;;;16.30;83.10;;;;;;5005541;28;20040;-81
2021/08/26 06:05:52;;;;;;;5.05;0.90;;;16.40;83.10;;;;;;5020587;28;20401;-80
2021/08/26 06:08:19;;;;;;;3.70;0.60;;;16.30;83.60;;;;;;4998549;28;20067;-81
2021/08/26 06:10:46;;;;;;;5.15;0.60;;;16.30;83.00;;;;;;4998895;28;20045;-81
2021/08/26 06:13:14;;;;;;;3.58;0.98;;;16.30;83.10;;;;;;4992962;28;20098;-81
2021/08/26 06:15:41;;;;;;;4.18;0.60;;;16.30;83.20;;;;;;4988322;28;20087;-81
2021/08/26 06:18:08;;;;;;;5.57;1.25;;;16.40;83.10;;;;;;5015104;28;20084;-80
2021/08/26 06:20:36;;;;;;;5.75;0.80;;;16.40;83.00;;;;;;5039790;28;20052;-80
2021/08/26 06:23:03;;;;;;;2.15;0.60;;;16.40;83.60;;;;;;5009023;28;20037;-79
2021/08/26 06:25:30;;;;;;;5.20;0.73;;;16.40;82.90;;;;;;5019646;28;20029;-79
2021/08/26 06:27:59;;;;;;;2.42;0.45;;;16.50;82.80;;;;;;5016582;28;20037;-80
2021/08/26 06:30:27;;;;;;;5.43;0.50;;;16.50;82.80;;;;;;5007385;28;20076;-80
2021/08/26 06:32:54;;;;;;;3.53;0.60;;;16.50;82.80;;;;;;5008545;28;20504;-79
2021/08/26 06:35:21;;;;;;;2.40;0.40;;;16.50;82.90;;;;;;5006821;28;20044;-81
2021/08/26 06:37:48;;;;;;;4.85;0.50;;;16.50;82.90;;;;;;5018113;28;20055;-80
2021/08/26 06:40:16;;;;;;;3.95;0.50;;;16.50;82.90;;;;;;5005900;28;20041;-80
2021/08/26 06:42:43;;;;;;;2.50;0.50;;;16.50;82.90;;;;;;5022888;28;20082;-81
2021/08/26 06:45:10;;;;;;;5.18;0.80;;;16.50;82.80;;;;;;5026890;28;20428;-80
2021/08/26 06:47:37;;;;;;;5.20;0.70;;;16.60;82.70;;;;;;5028528;28;20119;-80
2021/08/26 06:50:05;;;;;;;3.40;0.60;;;16.70;82.60;;;;;;5026275;28;20045;-80
2021/08/26 06:52:32;;;;;;;2.17;0.50;;;16.80;82.40;;;;;;5042051;28;20114;-80
2021/08/26 06:55:04;;;;;;;2.90;0.40;;;16.80;82.20;;;;;;5015838;28;20084;-80
2021/08/26 06:57:32;;;;;;;3.67;0.88;;;16.90;82.10;;;;;;5011632;28;20045;-80
2021/08/26 07:00:00;;;;;;;5.00;1.02;;;17.00;81.90;;;;;;5026780;28;20129;-80
2021/08/26 07:02:27;;;;;;;3.83;0.63;;;17.00;81.60;;;;;;5008633;28;20081;-80
2021/08/26 07:04:54;;;;;;;5.30;0.63;;;17.00;81.70;;;;;;5004839;28;20504;-80
2021/08/26 07:07:23;;;;;;;2.55;0.70;;;16.90;81.80;;;;;;4999256;28;20095;-81
2021/08/26 07:09:50;;;;;;;1.58;0.40;;;16.70;82.00;;;;;;5006128;28;20045;-81
2021/08/26 07:12:17;;;;;;;3.35;0.40;;;16.60;82.50;;;;;;5022239;28;20526;-80
2021/08/26 07:14:44;;;;;;;3.10;0.50;;;16.50;82.80;;;;;;5025889;28;20072;-81
2021/08/26 07:17:11;;;;;;;4.70;0.80;;;16.50;83.60;;;;;;5004017;28;20081;-80
2021/08/26 07:19:38;;;;;;;2.67;0.30;;;16.50;83.00;;;;;;5018250;28;20474;-81
2021/08/26 07:22:05;;;;;;;3.38;0.35;;;16.70;82.80;;;;;;4986786;28;20069;-80
2021/08/26 07:24:32;;;;;;;2.33;0.55;;;16.90;82.40;;;;;;5008097;28;20045;-81
2021/08/26 07:26:59;;;;;;;2.03;0.30;;;17.00;82.10;;;;;;5007427;28;20050;-81
2021/08/26 07:29:26;;;;;;;3.67;0.50;;;17.20;81.70;;;;;;5002589;28;20057;-81
2021/08/26 07:31:53;;;;;;;2.92;0.50;;;17.20;81.90;;;;;;4985817;28;20477;-80
2021/08/26 07:34:20;;;;;;;3.17;0.50;;;17.20;81.10;;;;;;5002902;28;20115;-80
2021/08/26 07:36:47;;;;;;;3.88;0.50;;;17.30;81.20;;;;;;5008055;28;20049;-80
2021/08/26 07:39:14;;;;;;;1.60;0.40;;;17.40;81.00;;;;;;5020283;28;20072;-81
2021/08/26 07:41:41;;;;;;;3.60;0.43;;;17.30;80.90;;;;;;5003525;28;20132;-80
2021/08/26 07:44:08;;;;;;;3.10;0.50;;;17.40;80.90;;;;;;5002503;28;20563;-80
2021/08/26 07:46:35;;;;;;;1.88;0.60;;;17.30;80.90;;;;;;5000414;28;20095;-79
2021/08/26 07:49:02;;;;;;;3.08;0.40;;;17.30;81.10;;;;;;5010384;28;20034;-81
2021/08/26 07:51:29;;;;;;;4.38;0.57;;;17.30;81.20;;;;;;5016306;28;20044;-82
2021/08/26 07:53:56;;;;;;;3.03;0.40;;;17.30;81.30;;;;;;5003109;28;20537;-79
2021/08/26 07:56:23;;;;;;;1.92;0.40;;;17.20;81.40;;;;;;5003870;28;20497;-86
2021/08/26 07:58:50;;;;;;;2.50;0.40;;;17.30;81.50;;;;;;5023512;28;20045;-83
2021/08/26 08:01:17;;;;;;;2.42;0.65;;;17.30;81.60;;;;;;5036888;28;20461;-85
2021/08/26 08:03:45;;;;;;;2.47;0.55;;;17.40;81.40;;;;;;5038448;28;20045;-86
2021/08/26 08:06:12;;;;;;;2.25;0.40;;;17.50;81.30;;;;;;5034234;28;20040;-84
2021/08/26 08:08:39;;;;;;;3.10;0.52;;;17.50;81.20;;;;;;5003618;28;20041;-83
2021/08/26 08:11:06;;;;;;;2.50;0.40;;;17.40;81.20;;;;;;5020101;28;20052;-80
2021/08/26 08:13:33;;;;;;;3.15;0.70;;;17.40;81.40;;;;;;4998447;28;20552;-79
2021/08/26 08:16:02;;;;;;;1.80;0.40;;;17.50;81.40;;;;;;5016943;28;20073;-82
2021/08/26 08:18:29;;;;;;;3.88;0.63;;;17.70;81.20;;;;;;5000975;28;20051;-81
2021/08/26 08:20:56;;;;;;;3.58;0.75;;;17.90;80.80;;;;;;5023252;28;20051;-81
2021/08/26 08:23:23;;;;;;;2.85;0.60;;;18.00;80.40;;;;;;5055581;28;20094;-81
2021/08/26 08:25:50;;;;;;;3.60;0.75;;;18.10;80.30;;;;;;5009843;28;20044;-80
2021/08/26 08:28:18;;;;;;;4.75;0.73;;;18.10;80.30;;;;;;5025805;28;20045;-79
2021/08/26 08:30:45;;;;;;;2.15;0.40;;;18.10;80.30;;;;;;5008938;28;20547;-79
2021/08/26 08:33:16;;;;;;;2.75;0.40;;;18.20;80.30;;;;;;5026625;28;20060;-80
2021/08/26 08:35:43;;;;;;;1.77;0.40;;;18.30;80.20;;;;;;5019670;28;20124;-81
2021/08/26 08:38:10;;;;;;;4.05;0.47;;;18.30;79.90;;;;;;5018259;28;20041;-79
2021/08/26 08:40:39;;;;;;;2.63;0.60;;;18.30;79.80;;;;;;5019471;28;20551;-81
2021/08/26 08:43:06;;;;;;;3.05;0.57;;;18.30;79.70;;;;;;5029293;28;20360;-81
2021/08/26 08:45:33;;;;;;;3.13;0.50;;;18.20;79.60;;;;;;5019861;28;20123;-80
2021/08/26 08:48:03;;;;;;;2.10;0.50;;;18.30;79.70;;;;;;5008963;28;20041;-82
2021/08/26 08:50:31;;;;;;;2.88;0.50;;;18.30;79.60;;;;;;5011064;28;20447;-82
2021/08/26 08:52:59;;;;;;;2.78;0.70;;;18.30;79.50;;;;;;5027366;28;20507;-83
2021/08/26 08:55:26;;;;;;;3.85;0.60;;;18.40;79.30;;;;;;5024618;28;20405;-83
2021/08/26 08:57:53;;;;;;;1.63;0.50;;;18.40;79.00;;;;;;5005853;28;20057;-81
2021/08/26 09:00:21;;;;;;;2.05;0.68;;;18.40;79.00;;;;;;5004920;28;20066;-83
2021/08/26 09:02:48;;;;;;;2.97;0.70;;;18.30;78.90;;;;;;5003860;28;20044;-83
2021/08/26 09:05:17;;;;;;;3.13;0.63;;;18.30;78.90;;;;;;5017457;28;20131;-83
2021/08/26 09:07:44;;;;;;;2.20;0.43;;;18.30;78.90;;;;;;5019135;28;20111;-83
2021/08/26 09:10:12;;;;;;;2.38;0.35;;;18.40;78.90;;;;;;5002091;28;20080;-83
2021/08/26 09:12:46;;;;;;;3.70;0.40;;;18.50;78.80;;;;;;5027849;28;20045;-81
2021/08/26 09:15:23;;;;;;;3.15;0.70;;;18.70;78.30;;;;;;5033788;28;20501;-81
2021/08/26 09:18:12;;;;;;;3.33;0.70;;;18.90;77.60;;;;;;5026927;28;20052;-79
2021/08/26 09:21:09;;;;;;;3.42;0.52;;;18.80;77.70;;;;;;5049276;28;20036;-81
2021/08/26 09:23:55;;;;;;;4.95;0.60;;;18.80;77.90;;;;;;5030377;28;20048;-81
2021/08/26 09:26:24;;;;;;;3.50;0.73;;;18.60;78.90;;;;;;5035498;28;20037;-81
2021/08/26 09:28:53;;;;;;;3.58;1.02;;;18.40;78.70;;;;;;4993094;28;20566;-81
2021/08/26 09:31:26;;;;;;;2.70;0.50;;;18.30;79.20;;;;;;5033195;28;20040;-81
2021/08/26 09:34:14;;;;;;;3.95;0.68;;;18.20;79.50;;;;;;5033268;28;20045;-80
2021/08/26 09:36:47;;;;;;;4.28;0.52;;;18.20;79.60;;;;;;5029638;28;20041;-81
2021/08/26 09:39:24;;;;;;;2.60;0.32;;;18.30;80.30;;;;;;5023243;28;20405;-82
2021/08/26 09:42:03;;;;;;;2.70;0.40;;;18.40;79.60;;;;;;5019017;28;20045;-82
2021/08/26 09:44:32;;;;;;;5.82;0.85;;;18.40;79.50;;;;;;5029122;28;20048;-82
2021/08/26 09:47:02;;;;;;;3.20;0.60;;;18.50;79.40;;;;;;5035519;28;20029;-82
2021/08/26 09:49:32;;;;;;;4.05;0.98;;;18.50;79.40;;;;;;5033073;28;20044;-82
2021/08/26 09:52:12;;;;;;;2.80;0.80;;;18.50;79.30;;;;;;5020835;28;20053;-81
2021/08/26 09:54:46;;;;;;;1.98;0.70;;;18.30;79.40;;;;;;5011610;28;20468;-82
2021/08/26 09:57:26;;;;;;;3.38;0.77;;;18.00;80.20;;;;;;5023080;28;20485;-81
2021/08/26 09:59:57;;;;;;;2.85;0.73;;;17.90;80.60;;;;;;5036805;28;20041;-81
2021/08/26 10:02:26;;;;;;;5.38;0.63;;;17.80;80.70;;;;;;5030380;28;20055;-81
2021/08/26 10:04:55;;;;;;;3.97;0.65;;;17.80;81.10;;;;;;5034729;28;20040;-82
2021/08/26 10:07:24;;;;;;;3.42;0.50;;;17.70;81.40;;;;;;5033866;28;20075;-82
2021/08/26 10:09:52;;;;;;;2.53;0.57;;;17.70;81.60;;;;;;5037338;28;20753;-82
2021/08/26 10:12:19;;;;;;;5.70;0.60;;;17.80;81.50;;;;;;5011111;28;20041;-83
2021/08/26 10:14:50;;;;;;;3.45;0.57;;;17.80;81.40;;;;;;5005130;28;20558;-82
2021/08/26 10:17:18;;;;;;;5.13;1.00;;;17.90;81.40;;;;;;5038528;28;20139;-82
2021/08/26 10:19:48;;;;;;;2.47;0.40;;;18.10;81.10;;;;;;5018664;28;20049;-82
2021/08/26 10:22:15;;;;;;;1.90;0.40;;;18.30;80.70;;;;;;5033597;28;20041;-82
2021/08/26 10:24:43;;;;;;;3.17;0.70;;;18.50;80.40;;;;;;5005906;28;20049;-82
2021/08/26 10:27:16;;;;;;;2.58;0.60;;;18.60;80.60;;;;;;5020372;28;20034;-80
2021/08/26 10:29:48;;;;;;;3.40;0.80;;;18.60;79.70;;;;;;5035821;28;20076;-82
2021/08/26 10:32:24;;;;;;;4.00;0.50;;;18.70;79.50;;;;;;5038691;28;20083;-82
2021/08/26 10:35:13;;;;;;;2.47;0.50;;;18.80;79.20;;;;;;5037328;28;20044;-82
2021/08/26 10:37:54;;;;;;;4.72;0.90;;;19.00;78.80;;;;;;5035524;28;20633;-82
2021/08/26 10:40:38;;;;;;;2.97;0.47;;;19.20;78.40;;;;;;5039582;28;20052;-82
2021/08/26 10:43:06;;;;;;;2.67;0.50;;;19.30;77.70;;;;;;5019685;28;20099;-81
2021/08/26 10:45:51;;;;;;;2.30;0.40;;;19.50;78.10;;;;;;5020675;28;20476;-81
2021/08/26 10:48:22;;;;;;;2.50;0.57;;;19.60;77.70;;;;;;5025665;28;20087;-83
2021/08/26 10:51:17;;;;;;;4.47;0.60;;;19.60;77.40;;;;;;5021318;28;20045;-85
2021/08/26 10:53:49;;;;;;;5.22;0.70;;;19.60;77.20;;;;;;5005318;28;20122;-80
2021/08/26 10:56:22;;;;;;;3.15;0.70;;;19.60;76.70;;;;;;5068263;28;20124;-81
2021/08/26 10:58:52;;;;;;;3.40;1.00;;;19.70;76.50;;;;;;5039055;28;20045;-80
2021/08/26 11:01:28;;;;;;;4.10;0.85;;;19.60;76.10;;;;;;5046163;28;20156;-78
2021/08/26 11:04:07;;;;;;;3.13;0.93;;;19.70;75.90;;;;;;5051038;28;20090;-79
2021/08/26 11:06:37;;;;;;;5.72;1.27;;;19.90;75.70;;;;;;5036609;28;20063;-80
2021/08/26 11:09:13;;;;;;;3.55;0.80;;;20.10;75.30;;;;;;5055053;28;20079;-80
2021/08/26 11:11:45;;;;;;;4.60;1.00;;;20.20;75.30;;;;;;5036460;28;20493;-84
2021/08/26 11:14:12;;;;;;;4.00;1.00;;;20.40;74.80;;;;;;5042967;28;20045;-78
2021/08/26 11:16:48;;;;;;;5.15;1.23;;;20.50;74.80;;;;;;5030884;28;20094;-79
2021/08/26 11:19:15;;;;;;;5.72;1.23;;;20.50;74.40;;;;;;5022768;28;20053;-79
2021/08/26 11:21:42;;;;;;;4.20;1.20;;;20.50;74.40;;;;;;5038557;28;20047;-81
2021/08/26 11:24:16;;;;;;;3.97;0.73;;;20.60;74.30;;;;;;5040873;28;20045;-81
2021/08/26 11:26:51;;;;;;;5.53;1.10;;;20.60;74.20;;;;;;5036200;28;20384;-79
2021/08/26 11:29:21;;;;;;;4.80;1.00;;;20.90;73.70;;;;;;5035420;28;20041;-81
2021/08/26 11:31:54;;;;;;;4.80;1.05;;;21.10;73.00;;;;;;5011030;28;20516;-81
2021/08/26 11:34:22;;;;;;;2.63;0.60;;;21.00;73.10;;;;;;5039956;28;20037;-81
2021/08/26 11:37:04;;;;;;;2.78;0.80;;;20.80;73.40;;;;;;5039672;28;20040;-82
2021/08/26 11:39:36;;;;;;;4.68;0.90;;;20.70;73.70;;;;;;5050711;28;20370;-83
2021/08/26 11:42:11;;;;;;;5.03;1.05;;;20.70;73.80;;;;;;5036758;28;20049;-80
2021/08/26 11:44:38;;;;;;;2.88;0.80;;;20.70;73.90;;;;;;5024131;28;20041;-79
2021/08/26 11:47:05;;;;;;;4.65;1.20;;;20.70;73.70;;;;;;5021598;28;20123;-81
2021/08/26 11:49:37;;;;;;;3.30;1.10;;;20.70;72.90;;;;;;5011788;28;20036;-80
2021/08/26 11:52:15;;;;;;;4.47;1.13;;;20.70;72.90;;;;;;5021146;28;20045;-82
2021/08/26 11:54:46;;;;;;;4.63;1.05;;;20.70;72.80;;;;;;5039444;28;20041;-80
2021/08/26 11:57:20;;;;;;;4.25;1.13;;;20.90;72.90;;;;;;5035486;28;20404;-81
2021/08/26 11:59:47;;;;;;;4.22;1.23;;;21.10;72.50;;;;;;5021653;28;20489;-79
2021/08/26 12:02:24;;;;;;;4.55;1.15;;;21.10;72.10;;;;;;5011441;28;20084;-80
2021/08/26 12:04:51;;;;;;;3.35;1.05;;;21.20;71.90;;;;;;5032927;28;20140;-78
2021/08/26 12:07:33;;;;;;;3.70;1.02;;;21.30;72.00;;;;;;5053241;28;20158;-80
2021/08/26 12:10:06;;;;;;;3.97;1.00;;;21.70;71.20;;;;;;5027500;28;20055;-78
2021/08/26 12:12:34;;;;;;;2.78;0.90;;;22.10;70.40;;;;;;5012826;28;20045;-79
2021/08/26 12:15:01;;;;;;;3.42;0.80;;;22.10;70.20;;;;;;5019588;28;20071;-81
2021/08/26 12:17:28;;;;;;;5.45;1.27;;;22.00;70.40;;;;;;5034006;28;20559;-81
2021/08/26 12:19:56;;;;;;;5.97;1.55;;;21.80;70.30;;;;;;4999089;28;20045;-81
2021/08/26 12:22:26;;;;;;;5.32;1.33;;;21.80;70.60;;;;;;5007003;28;20073;-83
2021/08/26 12:24:58;;;;;;;4.13;1.30;;;21.70;70.50;;;;;;5038856;28;20061;-85
2021/08/26 12:27:29;;;;;;;5.78;1.38;;;21.60;70.50;;;;;;5039605;28;20157;-83
2021/08/26 12:29:58;;;;;;;4.28;1.33;;;21.50;70.10;;;;;;5042875;28;20037;-83
2021/08/26 12:32:34;;;;;;;4.28;1.13;;;21.50;70.40;;;;;;5037747;28;20120;-82
2021/08/26 12:35:27;;;;;;;4.88;1.05;;;21.40;70.30;;;;;;5035570;28;20238;-82
2021/08/26 12:38:01;;;;;;;2.70;1.08;;;21.30;70.60;;;;;;5031582;28;20041;-84
2021/08/26 12:40:45;;;;;;;3.88;0.98;;;21.20;70.60;;;;;;5020560;28;20045;-85
2021/08/26 12:43:13;;;;;;;4.72;1.27;;;21.20;70.70;;;;;;5035950;28;20132;-85
2021/08/26 12:45:40;;;;;;;10.05;1.75;;;21.20;70.60;;;;;;4999048;28;20044;-86
2021/08/26 12:48:27;;;;;;;5.90;1.13;;;21.20;70.10;;;;;;5035733;28;20095;-88
2021/08/26 12:51:24;;;;;;;5.40;1.23;;;21.30;69.50;;;;;;5017558;28;20100;-82
2021/08/26 12:54:03;;;;;;;5.22;1.27;;;21.40;69.50;;;;;;5016660;28;20060;-80
2021/08/26 12:56:41;;;;;;;5.47;1.20;;;21.50;69.60;;;;;;5031824;28;20110;-81
2021/08/26 12:59:10;;;;;;;7.13;1.27;;;21.50;69.70;;;;;;5032119;28;20045;-82
2021/08/26 13:01:48;;;;;;;4.88;1.48;;;21.50;69.70;;;;;;5001124;28;20045;-81